Time;durP1;ratioP1;P1;durP2;ratioP2;P2;SDS_P1;SDS_P2;PMS_P1;PMS_P2;Temp;Humidity;BMP_temperature;BMP_pressure;BME280_temperature;BME280_humidity;BME280_pressure;Samples;Min_cycle;Max_cycle;Signal;HPM_P1;HPM_P2
2022/09/26 00:01:49;;;;;;;4.32;0.90;;;12.90;99.90;;;;;;5059973;28;20021;-80
2022/09/26 00:04:26;;;;;;;6.32;1.50;;;12.90;99.90;;;;;;5068756;28;20083;-80
2022/09/26 00:06:53;;;;;;;4.20;1.05;;;12.90;99.90;;;;;;5069887;28;20002;-81
2022/09/26 00:09:20;;;;;;;1.83;1.13;;;12.90;99.90;;;;;;5067636;28;20033;-79
2022/09/26 00:11:46;;;;;;;6.72;1.20;;;13.00;99.90;;;;;;5074426;28;20051;-79
2022/09/26 00:14:19;;;;;;;6.53;1.83;;;12.90;99.90;;;;;;5075883;28;20025;-78
2022/09/26 00:16:46;;;;;;;3.58;1.10;;;12.90;99.90;;;;;;5078413;28;20021;-80
2022/09/26 00:19:11;;;;;;;3.33;1.20;;;12.90;99.90;;;;;;5074974;28;20039;-80
2022/09/26 00:21:37;;;;;;;2.83;1.38;;;12.90;99.90;;;;;;5055109;28;20025;-79
2022/09/26 00:24:05;;;;;;;2.30;1.30;;;13.00;99.90;;;;;;5056859;28;20032;-80
2022/09/26 00:26:32;;;;;;;6.00;1.10;;;12.90;99.90;;;;;;5055821;28;20044;-81
2022/09/26 00:29:03;;;;;;;5.07;1.25;;;12.90;99.90;;;;;;5040663;28;20054;-81
2022/09/26 00:31:31;;;;;;;6.75;1.30;;;12.80;99.90;;;;;;5055201;28;20064;-80
2022/09/26 00:33:57;;;;;;;3.13;1.38;;;12.80;99.90;;;;;;5055065;28;20033;-80
2022/09/26 00:36:24;;;;;;;3.38;1.23;;;12.80;99.90;;;;;;5048661;28;20451;-80
2022/09/26 00:38:49;;;;;;;5.43;1.50;;;12.80;99.90;;;;;;5035441;28;20102;-81
2022/09/26 00:41:15;;;;;;;10.15;1.80;;;12.70;99.90;;;;;;5047664;28;20033;-80
2022/09/26 00:43:53;;;;;;;7.28;1.40;;;12.70;99.90;;;;;;5035639;28;20044;-80
2022/09/26 00:46:36;;;;;;;3.50;1.73;;;12.70;99.90;;;;;;5037064;28;20477;-80
2022/09/26 00:49:24;;;;;;;4.50;1.83;;;12.70;99.90;;;;;;5049427;28;20033;-80
2022/09/26 00:52:08;;;;;;;6.55;2.20;;;12.70;99.90;;;;;;5044837;28;20025;-81
2022/09/26 00:54:37;;;;;;;5.85;2.20;;;12.70;99.90;;;;;;5056754;28;20090;-79
2022/09/26 00:57:11;;;;;;;6.38;2.20;;;12.70;99.90;;;;;;5055748;28;20047;-81
2022/09/26 00:59:42;;;;;;;4.40;2.47;;;12.80;99.90;;;;;;5056019;28;20050;-80
2022/09/26 01:02:08;;;;;;;4.38;2.50;;;12.80;99.90;;;;;;5055869;28;20032;-80
2022/09/26 01:04:37;;;;;;;5.53;2.13;;;12.80;99.90;;;;;;5055129;28;20044;-81
2022/09/26 01:07:06;;;;;;;11.32;2.20;;;12.80;99.90;;;;;;5057055;28;20025;-80
2022/09/26 01:09:32;;;;;;;4.50;2.53;;;12.80;99.90;;;;;;5055726;28;20031;-80
2022/09/26 01:12:00;;;;;;;8.32;2.53;;;12.80;99.90;;;;;;5055332;28;20027;-80
2022/09/26 01:14:26;;;;;;;9.07;2.33;;;12.80;99.90;;;;;;5054792;28;20542;-80
2022/09/26 01:16:53;;;;;;;5.03;2.40;;;12.80;99.90;;;;;;5056247;28;20388;-81
2022/09/26 01:19:32;;;;;;;6.88;2.70;;;12.80;99.90;;;;;;5057614;28;20033;-80
2022/09/26 01:22:25;;;;;;;5.63;2.90;;;12.70;99.90;;;;;;5054642;28;20036;-81
2022/09/26 01:25:19;;;;;;;5.32;2.90;;;12.70;99.90;;;;;;5044623;28;20033;-80
2022/09/26 01:28:29;;;;;;;5.35;2.97;;;12.70;99.90;;;;;;5053504;28;20114;-80
2022/09/26 01:31:13;;;;;;;5.40;2.47;;;12.80;99.90;;;;;;5037564;28;20107;-80
2022/09/26 01:33:42;;;;;;;4.50;2.20;;;12.80;99.90;;;;;;5055580;28;20037;-80
2022/09/26 01:36:12;;;;;;;4.43;2.28;;;12.70;99.90;;;;;;5042762;28;20461;-80
2022/09/26 01:39:06;;;;;;;5.97;2.03;;;12.80;99.90;;;;;;5053030;28;20033;-81
2022/09/26 01:41:47;;;;;;;3.00;2.05;;;12.70;99.90;;;;;;5041154;28;20037;-79
2022/09/26 01:44:44;;;;;;;7.13;2.20;;;12.80;99.90;;;;;;5053565;28;20037;-81
2022/09/26 01:47:31;;;;;;;3.25;2.13;;;12.80;99.90;;;;;;5055837;28;20033;-80
2022/09/26 01:50:18;;;;;;;4.68;2.50;;;12.80;99.90;;;;;;5055760;28;20025;-81
2022/09/26 01:52:59;;;;;;;4.15;2.05;;;12.80;99.90;;;;;;5054221;28;20027;-80
2022/09/26 01:55:40;;;;;;;9.45;3.35;;;12.80;99.90;;;;;;5055557;28;20036;-80
2022/09/26 01:58:17;;;;;;;6.35;2.60;;;12.80;99.90;;;;;;5054016;28;20473;-80
2022/09/26 02:00:46;;;;;;;8.23;2.70;;;12.70;99.90;;;;;;5055994;28;20043;-79
2022/09/26 02:03:17;;;;;;;11.93;2.95;;;12.70;99.90;;;;;;5056268;28;20035;-80
2022/09/26 02:05:58;;;;;;;4.60;2.83;;;12.70;99.90;;;;;;5055590;28;20489;-80
2022/09/26 02:08:40;;;;;;;6.13;3.00;;;12.70;99.90;;;;;;5050837;28;20030;-80
2022/09/26 02:11:12;;;;;;;4.43;2.67;;;12.70;99.90;;;;;;5049947;28;20040;-80
2022/09/26 02:14:02;;;;;;;5.22;2.85;;;12.60;99.90;;;;;;5058010;28;20021;-79
2022/09/26 02:16:31;;;;;;;6.35;2.90;;;12.60;99.90;;;;;;5055025;28;20029;-80
2022/09/26 02:19:06;;;;;;;8.75;3.45;;;12.60;99.90;;;;;;5054535;28;20459;-79
2022/09/26 02:21:32;;;;;;;8.68;2.92;;;12.60;99.90;;;;;;5055481;28;20080;-79
2022/09/26 02:23:58;;;;;;;6.28;3.13;;;12.60;99.90;;;;;;5057775;28;20103;-80
2022/09/26 02:26:24;;;;;;;6.22;3.20;;;12.60;99.90;;;;;;5048377;28;20021;-81
2022/09/26 02:28:51;;;;;;;4.50;2.80;;;12.60;99.90;;;;;;5048870;28;20048;-79
2022/09/26 02:31:21;;;;;;;7.50;3.42;;;12.50;99.90;;;;;;5053516;28;20021;-80
2022/09/26 02:33:51;;;;;;;7.68;4.03;;;12.60;99.90;;;;;;5054222;28;20028;-80
2022/09/26 02:36:18;;;;;;;8.15;3.10;;;12.60;99.90;;;;;;5049570;28;20491;-79
2022/09/26 02:38:44;;;;;;;5.20;3.40;;;12.50;99.90;;;;;;5044403;28;20029;-80
2022/09/26 02:41:38;;;;;;;4.00;3.15;;;12.50;99.90;;;;;;5054917;28;20098;-82
2022/09/26 02:44:38;;;;;;;3.53;2.58;;;12.50;99.90;;;;;;5054241;28;20041;-81
2022/09/26 02:47:32;;;;;;;8.90;3.60;;;12.50;99.90;;;;;;5033077;28;20040;-82
2022/09/26 02:50:36;;;;;;;7.20;2.95;;;12.50;99.90;;;;;;5043895;28;20021;-82
2022/09/26 02:53:33;;;;;;;4.85;3.08;;;12.50;99.90;;;;;;5041181;28;20063;-83
2022/09/26 02:56:17;;;;;;;5.95;2.78;;;12.60;99.90;;;;;;5053585;28;20087;-82
2022/09/26 02:59:00;;;;;;;8.63;3.15;;;12.50;99.90;;;;;;5054286;28;20025;-80
2022/09/26 03:01:39;;;;;;;4.65;3.13;;;12.60;99.90;;;;;;5054554;28;20104;-82
2022/09/26 03:04:07;;;;;;;5.72;3.00;;;12.60;99.90;;;;;;5054571;28;20096;-81
2022/09/26 03:06:37;;;;;;;5.68;3.08;;;12.60;99.90;;;;;;5040787;28;20074;-81
2022/09/26 03:09:05;;;;;;;5.90;3.38;;;12.60;99.90;;;;;;5054735;28;20040;-81
2022/09/26 03:11:32;;;;;;;4.85;2.88;;;12.50;99.90;;;;;;5054660;28;20031;-81
2022/09/26 03:13:59;;;;;;;4.38;3.78;;;12.50;99.90;;;;;;5055763;28;20214;-82
2022/09/26 03:16:29;;;;;;;6.28;3.60;;;12.60;99.90;;;;;;5054234;28;20017;-82
2022/09/26 03:19:01;;;;;;;5.50;3.42;;;12.60;99.90;;;;;;5056537;28;20047;-82
2022/09/26 03:21:27;;;;;;;10.65;3.30;;;12.50;99.90;;;;;;5056240;28;20101;-83
2022/09/26 03:23:55;;;;;;;7.80;3.80;;;12.50;99.90;;;;;;5056603;28;20498;-82
2022/09/26 03:26:24;;;;;;;4.97;3.15;;;12.40;99.90;;;;;;5041318;28;20105;-81
2022/09/26 03:28:51;;;;;;;6.90;2.75;;;12.50;99.90;;;;;;5056014;28;20049;-81
2022/09/26 03:31:21;;;;;;;4.50;3.45;;;12.50;99.90;;;;;;5061866;28;20025;-81
2022/09/26 03:33:50;;;;;;;5.88;2.83;;;12.50;99.90;;;;;;5047262;28;20022;-81
2022/09/26 03:36:16;;;;;;;5.57;2.55;;;12.50;99.90;;;;;;5039934;28;20037;-82
2022/09/26 03:38:41;;;;;;;7.93;3.70;;;12.40;99.90;;;;;;5066908;28;20021;-83
2022/09/26 03:41:10;;;;;;;6.82;3.08;;;12.50;99.90;;;;;;5067351;28;20518;-83
2022/09/26 03:43:36;;;;;;;6.65;3.40;;;12.40;99.90;;;;;;5044968;28;20043;-81
2022/09/26 03:46:04;;;;;;;6.82;2.38;;;12.50;99.90;;;;;;5049103;28;20104;-83
2022/09/26 03:48:31;;;;;;;6.90;3.20;;;12.50;99.90;;;;;;5051198;28;20064;-82
2022/09/26 03:51:08;;;;;;;5.97;2.67;;;12.50;99.90;;;;;;5060066;28;20017;-83
2022/09/26 03:53:39;;;;;;;4.35;2.70;;;12.50;99.90;;;;;;5061691;28;20033;-83
2022/09/26 03:56:11;;;;;;;4.15;2.58;;;12.50;99.90;;;;;;5046728;28;20032;-82
2022/09/26 03:58:37;;;;;;;3.88;2.30;;;12.60;99.90;;;;;;5054587;28;20025;-83
2022/09/26 04:01:08;;;;;;;3.35;2.40;;;12.50;99.90;;;;;;5053597;28;20026;-81
2022/09/26 04:03:35;;;;;;;5.53;2.25;;;12.50;99.90;;;;;;5069701;28;20079;-81
2022/09/26 04:06:02;;;;;;;4.40;2.13;;;12.50;99.90;;;;;;5064833;28;20036;-82
2022/09/26 04:08:27;;;;;;;5.88;2.60;;;12.40;99.90;;;;;;5072693;28;20029;-81
2022/09/26 04:11:09;;;;;;;7.93;2.97;;;12.40;99.90;;;;;;5063108;28;20014;-81
2022/09/26 04:13:35;;;;;;;4.25;2.85;;;12.40;99.90;;;;;;5071145;28;20015;-82
2022/09/26 04:16:02;;;;;;;4.05;2.40;;;12.30;99.90;;;;;;5080419;28;20060;-83
2022/09/26 04:18:28;;;;;;;5.00;3.00;;;12.40;99.90;;;;;;5079841;28;20084;-81
2022/09/26 04:21:09;;;;;;;3.78;2.22;;;12.40;99.90;;;;;;5065657;28;20082;-82
2022/09/26 04:23:36;;;;;;;;;;;12.30;99.90;;;;;;5062317;28;20032;-83
2022/09/26 04:26:13;;;;;;;11.68;3.33;;;12.40;99.90;;;;;;5060923;28;19905;-81
2022/09/26 04:28:40;;;;;;;4.70;2.35;;;12.30;99.90;;;;;;5061760;28;20057;-82
2022/09/26 04:31:07;;;;;;;5.63;2.55;;;12.30;99.90;;;;;;5061993;28;20032;-82
2022/09/26 04:33:33;;;;;;;4.80;2.30;;;12.30;99.90;;;;;;5060098;28;20017;-83
2022/09/26 04:36:00;;;;;;;5.35;2.47;;;12.40;99.90;;;;;;5046363;28;20116;-83
2022/09/26 04:38:33;;;;;;;10.00;2.65;;;12.30;99.90;;;;;;5055513;28;20057;-82
2022/09/26 04:41:06;;;;;;;4.68;2.50;;;12.30;99.90;;;;;;5057352;28;20036;-82
2022/09/26 04:43:33;;;;;;;3.92;2.25;;;12.30;99.90;;;;;;5057651;28;20393;-80
2022/09/26 04:45:59;;;;;;;4.68;2.28;;;12.30;99.90;;;;;;5057810;28;20029;-81
2022/09/26 04:48:27;;;;;;;4.60;2.65;;;12.20;99.90;;;;;;5042351;28;20025;-82
2022/09/26 04:50:53;;;;;;;2.38;2.00;;;12.20;99.90;;;;;;5036881;28;20022;-82
2022/09/26 04:53:19;;;;;;;4.68;2.28;;;12.20;99.90;;;;;;5049001;28;20051;-82
2022/09/26 04:55:45;;;;;;;6.13;2.22;;;12.80;99.90;;;;;;5056048;28;20049;-82
2022/09/26 04:58:12;;;;;;;7.70;2.78;;;12.10;99.90;;;;;;5057103;28;20032;-81
2022/09/26 05:00:46;;;;;;;4.18;2.05;;;12.10;99.90;;;;;;5056093;28;20017;-81
2022/09/26 05:03:16;;;;;;;3.97;2.17;;;12.20;99.90;;;;;;5056185;28;20041;-81
2022/09/26 05:05:44;;;;;;;3.78;2.10;;;12.10;99.90;;;;;;5056016;28;20459;-82
2022/09/26 05:08:11;;;;;;;4.53;2.60;;;12.10;99.90;;;;;;5055634;28;20120;-81
2022/09/26 05:10:37;;;;;;;4.57;2.03;;;12.10;99.90;;;;;;5057074;28;20063;-81
2022/09/26 05:13:03;;;;;;;8.93;2.17;;;12.00;99.90;;;;;;5056891;28;20021;-81
2022/09/26 05:15:29;;;;;;;3.42;2.30;;;12.10;99.90;;;;;;5043592;28;20033;-82
2022/09/26 05:17:59;;;;;;;6.13;2.20;;;12.10;99.90;;;;;;5041578;28;20022;-81
2022/09/26 05:20:30;;;;;;;6.85;1.60;;;12.10;99.90;;;;;;5037665;28;20030;-81
2022/09/26 05:23:00;;;;;;;2.97;2.00;;;12.10;99.90;;;;;;5038497;28;20090;-82
2022/09/26 05:28:12;;;;;;;8.07;2.63;;;12.20;99.90;;;;;;5049457;28;20444;-82
2022/09/26 05:30:38;;;;;;;7.93;2.47;;;12.10;99.90;;;;;;5042887;28;20029;-82
2022/09/26 05:33:04;;;;;;;2.92;1.90;;;12.10;99.90;;;;;;5042245;28;20351;-82
2022/09/26 05:35:33;;;;;;;3.88;2.33;;;12.10;99.90;;;;;;5044345;28;20020;-81
2022/09/26 05:38:01;;;;;;;3.72;2.00;;;12.10;99.90;;;;;;5042398;28;20017;-82
2022/09/26 05:43:11;;;;;;;5.30;1.98;;;12.10;99.90;;;;;;5057569;28;20098;-82
2022/09/26 05:45:37;;;;;;;5.43;2.00;;;12.00;99.90;;;;;;5054657;28;20033;-82
2022/09/26 05:48:04;;;;;;;4.75;2.20;;;12.00;99.90;;;;;;5056801;28;20431;-82
2022/09/26 05:50:30;;;;;;;6.15;2.10;;;12.00;99.90;;;;;;5052732;28;20036;-82
2022/09/26 05:52:57;;;;;;;3.33;2.00;;;12.10;99.90;;;;;;5048776;28;20029;-82
2022/09/26 05:55:23;;;;;;;6.45;2.05;;;12.00;99.90;;;;;;5053516;28;20025;-82
2022/09/26 05:57:51;;;;;;;2.80;2.15;;;12.00;99.90;;;;;;5050411;28;20062;-83
2022/09/26 06:00:16;;;;;;;4.40;2.38;;;12.10;99.90;;;;;;5052858;28;20106;-82
2022/09/26 06:02:42;;;;;;;5.57;2.55;;;12.00;99.90;;;;;;5048379;28;20453;-82
2022/09/26 06:05:08;;;;;;;6.53;2.28;;;12.10;99.90;;;;;;5053376;28;20028;-84
2022/09/26 06:07:35;;;;;;;3.78;2.40;;;12.00;99.90;;;;;;5046021;28;20017;-82
2022/09/26 06:10:04;;;;;;;4.85;2.63;;;12.10;99.90;;;;;;5050371;28;20056;-83
2022/09/26 06:12:30;;;;;;;11.65;2.75;;;12.00;99.90;;;;;;5041904;28;20086;-83
2022/09/26 06:14:55;;;;;;;11.18;2.75;;;12.00;99.90;;;;;;5051613;28;20433;-83
2022/09/26 06:17:21;;;;;;;4.93;2.60;;;12.00;99.90;;;;;;5047989;28;20022;-82
2022/09/26 06:19:47;;;;;;;5.40;2.22;;;12.10;99.90;;;;;;5060848;28;20394;-83
2022/09/26 06:22:12;;;;;;;5.88;2.78;;;12.00;99.90;;;;;;5058969;28;21400;-83
2022/09/26 06:24:38;;;;;;;5.05;3.00;;;12.00;99.90;;;;;;5054834;28;20098;-81
2022/09/26 06:27:03;;;;;;;3.97;2.30;;;12.00;99.90;;;;;;5055357;28;20477;-82
2022/09/26 06:29:29;;;;;;;13.02;3.05;;;12.10;99.90;;;;;;5049416;28;20485;-83
2022/09/26 06:31:54;;;;;;;3.28;2.35;;;12.10;99.90;;;;;;5038108;28;20052;-83
2022/09/26 06:34:21;;;;;;;6.15;2.70;;;12.10;99.90;;;;;;5051104;28;20025;-83
2022/09/26 06:36:46;;;;;;;5.38;3.05;;;12.10;99.90;;;;;;5051291;28;20369;-83
2022/09/26 06:39:13;;;;;;;5.53;2.90;;;12.20;99.90;;;;;;5050284;28;20036;-85
2022/09/26 06:41:39;;;;;;;4.18;2.53;;;12.20;99.90;;;;;;5050208;28;20091;-83
2022/09/26 06:44:04;;;;;;;4.85;2.38;;;12.20;99.90;;;;;;5057937;28;20426;-83
2022/09/26 06:46:30;;;;;;;2.95;2.15;;;12.30;99.90;;;;;;5051809;28;20049;-83
2022/09/26 06:48:56;;;;;;;5.68;2.80;;;12.30;99.90;;;;;;5043742;28;20032;-83
2022/09/26 06:51:22;;;;;;;6.72;2.53;;;12.20;99.90;;;;;;5035768;28;20028;-84
2022/09/26 06:53:48;;;;;;;2.80;1.95;;;12.30;99.90;;;;;;5035517;28;20014;-79
2022/09/26 06:56:13;;;;;;;2.63;2.03;;;12.30;99.90;;;;;;5047283;28;20053;-80
2022/09/26 06:58:39;;;;;;;6.32;2.45;;;12.40;99.90;;;;;;5046895;28;20108;-77
2022/09/26 07:01:07;;;;;;;2.53;2.00;;;12.40;99.90;;;;;;5040852;28;20457;-78
2022/09/26 07:03:32;;;;;;;8.52;2.38;;;12.30;99.90;;;;;;5043921;28;20045;-78
2022/09/26 07:06:04;;;;;;;4.03;2.05;;;12.40;99.90;;;;;;5043440;28;20030;-78
2022/09/26 07:08:30;;;;;;;5.90;2.10;;;12.40;99.90;;;;;;5042342;28;20049;-78
2022/09/26 07:10:59;;;;;;;8.05;2.75;;;12.40;99.90;;;;;;5034975;28;20429;-77
2022/09/26 07:13:26;;;;;;;4.43;2.10;;;12.40;99.90;;;;;;5032449;28;20023;-77
2022/09/26 07:15:54;;;;;;;5.03;2.25;;;12.40;99.90;;;;;;5031936;28;20100;-78
2022/09/26 07:18:20;;;;;;;4.65;2.22;;;12.50;99.90;;;;;;5036041;28;20025;-77
2022/09/26 07:20:46;;;;;;;7.53;2.45;;;12.50;99.90;;;;;;5038313;28;20465;-78
2022/09/26 07:23:12;;;;;;;6.15;2.53;;;12.50;99.90;;;;;;5036865;28;20204;-80
2022/09/26 07:25:38;;;;;;;7.70;2.47;;;12.60;99.90;;;;;;5038630;28;20069;-80
2022/09/26 07:28:06;;;;;;;6.75;2.15;;;12.60;99.90;;;;;;5051345;28;20076;-79
2022/09/26 07:30:32;;;;;;;7.18;2.30;;;12.70;99.90;;;;;;5040961;28;20029;-79
2022/09/26 07:33:02;;;;;;;5.60;1.90;;;12.60;99.90;;;;;;5051916;28;20032;-79
2022/09/26 07:35:29;;;;;;;2.35;1.80;;;12.70;99.90;;;;;;5054403;28;20017;-78
2022/09/26 07:37:55;;;;;;;4.22;2.10;;;12.70;99.90;;;;;;5037284;28;20033;-77
2022/09/26 07:40:21;;;;;;;5.55;2.33;;;12.60;99.90;;;;;;5049338;28;20020;-76
2022/09/26 07:42:47;;;;;;;5.60;2.30;;;12.80;99.90;;;;;;5038176;28;20029;-77
2022/09/26 07:45:13;;;;;;;5.68;2.42;;;12.80;99.90;;;;;;5038161;28;20084;-79
2022/09/26 07:50:22;;;;;;;8.18;2.65;;;13.00;99.90;;;;;;5036932;28;20028;-76
2022/09/26 07:52:49;;;;;;;4.25;2.10;;;13.10;99.90;;;;;;5051395;28;20385;-78
2022/09/26 07:55:20;;;;;;;8.18;2.17;;;13.10;99.90;;;;;;5037016;28;20028;-76
2022/09/26 07:57:48;;;;;;;5.22;2.30;;;13.20;99.90;;;;;;5035622;28;20029;-80
2022/09/26 08:00:16;;;;;;;4.47;2.35;;;13.20;99.90;;;;;;5036114;28;20021;-77
2022/09/26 08:02:44;;;;;;;2.45;1.70;;;13.20;99.90;;;;;;5036398;28;20014;-76
2022/09/26 08:05:21;;;;;;;2.35;1.63;;;13.20;99.90;;;;;;5036291;28;20029;-76
2022/09/26 08:07:47;;;;;;;6.38;2.58;;;13.10;99.90;;;;;;5037776;28;20022;-76
2022/09/26 08:10:22;;;;;;;4.50;2.00;;;13.10;99.90;;;;;;5038946;28;20056;-76
2022/09/26 08:12:48;;;;;;;3.63;2.00;;;13.10;99.90;;;;;;5040382;28;20021;-76
2022/09/26 08:15:14;;;;;;;5.13;1.77;;;13.10;99.90;;;;;;5049655;28;20025;-76
2022/09/26 08:17:40;;;;;;;6.38;2.20;;;13.00;99.90;;;;;;5045448;28;20093;-77
2022/09/26 08:20:06;;;;;;;4.50;2.13;;;13.10;99.90;;;;;;5048300;28;20063;-74
2022/09/26 08:22:32;;;;;;;5.20;2.70;;;13.10;99.90;;;;;;5055574;28;20025;-78
2022/09/26 08:24:59;;;;;;;6.78;1.90;;;13.00;99.90;;;;;;5057494;28;20024;-79
2022/09/26 08:27:25;;;;;;;10.85;3.78;;;13.00;99.90;;;;;;5056372;28;20044;-80
2022/09/26 08:29:50;;;;;;;3.63;2.20;;;13.00;99.90;;;;;;5060565;28;20084;-79
2022/09/26 08:32:18;;;;;;;8.48;2.88;;;13.00;99.90;;;;;;5049490;28;20043;-79
2022/09/26 08:34:45;;;;;;;5.13;2.03;;;12.90;99.90;;;;;;5046148;28;20442;-79
2022/09/26 08:37:10;;;;;;;8.32;2.60;;;12.90;99.90;;;;;;5041468;28;20013;-79
2022/09/26 08:39:36;;;;;;;6.05;2.20;;;12.90;99.90;;;;;;5052408;28;20079;-78
2022/09/26 08:42:07;;;;;;;5.53;2.33;;;12.90;99.90;;;;;;5048968;28;20503;-77
2022/09/26 08:48:35;;;;;;;5.15;2.20;;;13.00;99.90;;;;;;5048801;28;20036;-77
2022/09/26 08:51:35;;;;;;;10.25;3.13;;;13.00;99.90;;;;;;5039672;28;20029;-79
2022/09/26 08:54:18;;;;;;;9.30;3.03;;;13.00;99.90;;;;;;5046848;28;20025;-78
2022/09/26 08:56:51;;;;;;;6.05;2.13;;;13.10;99.90;;;;;;5047114;28;20804;-78
2022/09/26 08:59:33;;;;;;;5.75;2.35;;;13.10;99.90;;;;;;5047144;28;20017;-78
2022/09/26 09:02:17;;;;;;;3.10;1.95;;;13.10;99.90;;;;;;5045984;28;20029;-78
2022/09/26 09:04:56;;;;;;;9.63;3.03;;;13.20;99.90;;;;;;5045251;28;20400;-78
2022/09/26 09:07:24;;;;;;;5.40;2.60;;;13.20;99.90;;;;;;5039239;28;20025;-78
2022/09/26 09:09:53;;;;;;;5.55;2.47;;;13.20;99.90;;;;;;5051435;28;20029;-78
2022/09/26 09:12:34;;;;;;;7.63;2.90;;;13.20;99.90;;;;;;5049585;28;20033;-76
2022/09/26 09:15:31;;;;;;;9.23;2.85;;;13.30;99.90;;;;;;5051129;28;20017;-78
2022/09/26 09:17:59;;;;;;;5.85;2.08;;;13.30;99.90;;;;;;5047960;28;20044;-78
2022/09/26 09:20:34;;;;;;;10.50;2.88;;;13.40;99.90;;;;;;5050646;28;20017;-78
2022/09/26 09:23:06;;;;;;;8.75;2.70;;;13.40;99.90;;;;;;5048336;28;20037;-78
2022/09/26 09:25:57;;;;;;;6.80;2.80;;;13.50;99.90;;;;;;5047927;28;20386;-80
2022/09/26 09:29:13;;;;;;;4.95;2.25;;;13.40;99.90;;;;;;5054419;28;20090;-78
2022/09/26 09:31:41;;;;;;;5.50;2.33;;;13.50;99.90;;;;;;5054261;28;20045;-79
2022/09/26 09:34:25;;;;;;;7.10;2.75;;;13.60;99.90;;;;;;5050000;28;20365;-78
2022/09/26 09:37:00;;;;;;;7.22;2.28;;;13.90;99.90;;;;;;5050927;28;20060;-78
2022/09/26 09:39:35;;;;;;;6.13;2.65;;;13.50;99.90;;;;;;5051429;28;20021;-79
2022/09/26 09:42:24;;;;;;;4.70;2.47;;;13.50;99.90;;;;;;5053131;28;20021;-79
2022/09/26 09:45:03;;;;;;;4.47;2.55;;;13.40;99.90;;;;;;5051186;28;20044;-79
2022/09/26 09:47:29;;;;;;;3.92;2.60;;;13.50;99.90;;;;;;5037354;28;20043;-79
2022/09/26 09:49:56;;;;;;;7.32;2.92;;;13.50;99.90;;;;;;5047186;28;20389;-80
2022/09/26 09:52:34;;;;;;;6.93;2.92;;;13.60;99.90;;;;;;5045347;28;20124;-79
2022/09/26 09:55:20;;;;;;;3.67;2.88;;;13.60;99.90;;;;;;5048351;28;20040;-79
2022/09/26 09:58:15;;;;;;;6.50;3.08;;;13.60;99.90;;;;;;5048569;28;20029;-80
2022/09/26 10:01:13;;;;;;;3.92;2.80;;;13.50;99.90;;;;;;5041456;28;20029;-80
2022/09/26 10:03:54;;;;;;;6.25;2.80;;;13.40;99.90;;;;;;5034604;28;20510;-80
2022/09/26 10:06:21;;;;;;;5.15;3.15;;;13.40;99.90;;;;;;5047602;28;20104;-80
2022/09/26 10:08:46;;;;;;;5.40;3.22;;;13.40;99.90;;;;;;5044913;28;20029;-80
2022/09/26 10:11:40;;;;;;;8.77;3.13;;;13.30;99.90;;;;;;5044690;28;20573;-73
2022/09/26 10:14:15;;;;;;;6.25;3.00;;;13.30;99.90;;;;;;5050503;28;20059;-81
2022/09/26 10:17:09;;;;;;;4.03;3.45;;;13.30;99.90;;;;;;5052436;28;20350;-81
2022/09/26 10:19:37;;;;;;;6.90;4.15;;;13.30;99.90;;;;;;5049034;28;20021;-81
2022/09/26 10:22:08;;;;;;;4.13;3.72;;;13.40;99.90;;;;;;5049888;28;20564;-80
2022/09/26 10:24:39;;;;;;;6.90;3.65;;;13.30;99.90;;;;;;5051274;28;20476;-80
2022/09/26 10:27:22;;;;;;;3.20;2.95;;;13.40;99.90;;;;;;5052356;28;20025;-80
2022/09/26 10:29:57;;;;;;;6.63;3.42;;;13.40;99.90;;;;;;5042300;28;20043;-81
2022/09/26 10:32:23;;;;;;;8.32;3.60;;;13.40;99.90;;;;;;5039569;28;20096;-80
2022/09/26 10:35:23;;;;;;;5.90;3.28;;;13.40;99.90;;;;;;5033126;28;20366;-80
2022/09/26 10:37:59;;;;;;;5.40;3.53;;;13.40;99.90;;;;;;5033691;28;20021;-80
2022/09/26 10:40:47;;;;;;;5.18;3.30;;;13.40;99.90;;;;;;5040930;28;20476;-79
2022/09/26 10:43:46;;;;;;;4.15;3.75;;;13.40;99.90;;;;;;5042967;28;20481;-81
2022/09/26 10:46:21;;;;;;;4.80;3.47;;;13.40;99.90;;;;;;5042103;28;20093;-79
2022/09/26 10:48:53;;;;;;;6.90;3.70;;;13.50;99.90;;;;;;5052662;28;20035;-80
2022/09/26 10:51:36;;;;;;;4.68;3.88;;;13.50;99.90;;;;;;5043695;28;20088;-79
2022/09/26 10:54:15;;;;;;;3.58;3.08;;;13.50;99.90;;;;;;5045313;28;20039;-78
2022/09/26 10:56:46;;;;;;;4.07;3.53;;;13.60;99.90;;;;;;5037761;28;20033;-79
2022/09/26 10:59:17;;;;;;;4.57;3.60;;;13.60;99.90;;;;;;5032829;28;20022;-79
2022/09/26 11:01:44;;;;;;;;;;;13.60;99.90;;;;;;5037050;28;20018;-79
2022/09/26 11:07:34;;;;;;;4.60;4.20;;;13.50;99.90;;;;;;5038691;28;20124;-77
2022/09/26 11:10:05;;;;;;;5.03;4.50;;;13.50;99.90;;;;;;5042905;28;20389;-78
2022/09/26 11:12:38;;;;;;;5.68;3.75;;;13.50;99.90;;;;;;5037636;28;20028;-79
2022/09/26 11:15:09;;;;;;;5.85;3.40;;;13.50;99.90;;;;;;5031380;28;20143;-80
2022/09/26 11:17:45;;;;;;;5.10;4.22;;;13.50;99.90;;;;;;5039741;28;20067;-80
2022/09/26 11:20:33;;;;;;;4.70;4.30;;;13.40;99.90;;;;;;5047942;28;20046;-79
2022/09/26 11:23:36;;;;;;;12.43;8.88;;;13.50;99.90;;;;;;5032584;28;20456;-79
2022/09/26 11:26:26;;;;;;;4.75;3.90;;;13.50;99.90;;;;;;5046495;28;20060;-79
2022/09/26 11:29:07;;;;;;;4.20;3.80;;;13.50;99.90;;;;;;5035645;28;20049;-79
2022/09/26 11:31:42;;;;;;;4.57;3.65;;;13.50;99.90;;;;;;5033653;28;20044;-80
2022/09/26 11:34:15;;;;;;;5.45;4.32;;;13.50;99.90;;;;;;5040383;28;20028;-79
2022/09/26 11:36:51;;;;;;;4.50;4.10;;;13.60;99.90;;;;;;5033792;28;20029;-79
2022/09/26 11:39:32;;;;;;;5.07;4.40;;;13.60;99.90;;;;;;5040309;28;20053;-80
2022/09/26 11:42:31;;;;;;;7.90;6.97;;;13.60;99.90;;;;;;5049874;28;20044;-79
2022/09/26 11:45:03;;;;;;;5.88;5.28;;;13.60;99.90;;;;;;5048888;28;20431;-80
2022/09/26 11:47:41;;;;;;;15.05;9.18;;;13.50;99.90;;;;;;5038955;28;20029;-81
2022/09/26 11:50:44;;;;;;;11.38;8.48;;;13.50;99.90;;;;;;5052499;28;20033;-80
2022/09/26 11:53:25;;;;;;;7.07;6.38;;;13.40;99.90;;;;;;5033344;28;20476;-80
2022/09/26 11:56:05;;;;;;;4.93;4.43;;;13.50;99.90;;;;;;5052603;28;20070;-80
2022/09/26 11:58:48;;;;;;;4.53;4.13;;;13.50;99.90;;;;;;5041565;28;20179;-80
2022/09/26 12:01:26;;;;;;;4.18;3.60;;;13.50;99.90;;;;;;5038508;28;20018;-80
2022/09/26 12:04:20;;;;;;;4.82;4.43;;;13.50;99.90;;;;;;5068161;28;20105;-80
2022/09/26 12:07:01;;;;;;;4.80;4.07;;;13.60;99.90;;;;;;5072780;28;20040;-80
2022/09/26 12:09:26;;;;;;;;;;;13.70;99.90;;;;;;5070869;28;20025;-80
2022/09/26 12:12:08;;;;;;;5.93;3.92;;;13.60;99.90;;;;;;5060045;28;19904;-80
2022/09/26 12:14:43;;;;;;;5.60;3.85;;;13.80;99.90;;;;;;5058667;28;20047;-81
2022/09/26 12:17:21;;;;;;;3.70;3.40;;;13.80;99.90;;;;;;5056869;28;20051;-80
2022/09/26 12:20:00;;;;;;;4.10;3.80;;;13.80;99.90;;;;;;5056157;28;20029;-81
2022/09/26 12:22:48;;;;;;;4.68;4.28;;;13.80;99.90;;;;;;5055241;28;20032;-79
2022/09/26 12:25:35;;;;;;;4.68;4.30;;;13.70;99.90;;;;;;5049001;28;20029;-79
2022/09/26 12:28:37;;;;;;;4.68;4.28;;;13.60;99.90;;;;;;5052151;28;20056;-81
2022/09/26 12:31:23;;;;;;;4.18;3.88;;;13.60;99.90;;;;;;5050363;28;20047;-79
2022/09/26 12:34:13;;;;;;;3.30;3.10;;;13.60;99.90;;;;;;5049847;28;20115;-79
2022/09/26 12:36:48;;;;;;;3.50;3.15;;;13.60;99.90;;;;;;5051555;28;20369;-80
2022/09/26 12:39:44;;;;;;;2.90;2.70;;;13.50;99.90;;;;;;5050171;28;20031;-80
2022/09/26 12:42:31;;;;;;;3.22;2.92;;;13.50;99.90;;;;;;5051378;28;20025;-80
2022/09/26 12:45:16;;;;;;;2.58;2.38;;;13.50;99.90;;;;;;5051373;28;20492;-81
2022/09/26 12:47:57;;;;;;;2.80;2.60;;;13.50;99.90;;;;;;5048620;28;20029;-80
2022/09/26 12:50:40;;;;;;;2.97;2.33;;;13.50;99.90;;;;;;5054331;28;20029;-80
2022/09/26 12:53:16;;;;;;;3.13;2.65;;;13.50;99.90;;;;;;5054826;28;20108;-81
2022/09/26 12:56:33;;;;;;;2.05;1.95;;;13.40;99.90;;;;;;5050536;28;20528;-78
2022/09/26 12:59:40;;;;;;;1.90;1.80;;;13.50;99.90;;;;;;5036011;28;20033;-80
2022/09/26 13:02:15;;;;;;;2.17;1.90;;;13.40;99.90;;;;;;5051071;28;20249;-81
2022/09/26 13:04:47;;;;;;;2.67;1.70;;;13.50;99.90;;;;;;5052539;28;20048;-80
2022/09/26 13:07:33;;;;;;;3.58;2.20;;;13.60;99.90;;;;;;5058853;28;20089;-80
2022/09/26 13:09:58;;;;;;;5.18;2.90;;;13.60;99.90;;;;;;5075849;28;20013;-79
2022/09/26 13:12:51;;;;;;;4.03;2.60;;;13.80;99.90;;;;;;5055809;28;20587;-80
2022/09/26 13:15:50;;;;;;;22.48;13.73;;;13.90;99.90;;;;;;5054717;28;20060;-81
2022/09/26 13:18:21;;;;;;;5.85;3.28;;;14.10;99.90;;;;;;5052386;28;20027;-81
2022/09/26 13:20:52;;;;;;;23.10;11.57;;;14.40;99.90;;;;;;5054676;28;20025;-81
2022/09/26 13:23:32;;;;;;;145.88;59.78;;;14.60;99.90;;;;;;5052630;28;20045;-81
2022/09/26 13:26:15;;;;;;;5.13;3.27;;;14.70;99.90;;;;;;5049870;28;20111;-81
2022/09/26 13:29:02;;;;;;;3.65;1.90;;;14.90;99.90;;;;;;5051197;28;20132;-81
2022/09/26 13:31:39;;;;;;;1.70;1.60;;;14.90;99.90;;;;;;5054335;28;20115;-81
2022/09/26 13:34:42;;;;;;;2.60;1.92;;;14.90;99.90;;;;;;5053688;28;20031;-80
2022/09/26 13:37:30;;;;;;;2.53;1.95;;;15.10;99.90;;;;;;5051708;28;20112;-80
2022/09/26 13:40:20;;;;;;;3.08;2.25;;;15.30;99.90;;;;;;5068814;28;20146;-81